Time;durP1;ratioP1;P1;durP2;ratioP2;P2;SDS_P1;SDS_P2;PMS_P1;PMS_P2;Temp;Humidity;BMP_temperature;BMP_pressure;BME280_temperature;BME280_humidity;BME280_pressure;Samples;Min_cycle;Max_cycle;Signal;HPM_P1;HPM_P2
2021/11/18 00:01:37;;;;;;;13.48;11.20;;;;;;;10.83;45.02;100544.11;1753904;81;21613;-61
2021/11/18 00:04:07;;;;;;;14.65;11.55;;;;;;;10.81;45.02;100536.28;1748176;80;21072;-61
2021/11/18 00:06:33;;;;;;;13.90;10.98;;;;;;;10.80;45.03;100540.44;1755840;81;21050;-60
2021/11/18 00:09:01;;;;;;;15.13;11.38;;;;;;;10.79;45.04;100544.89;1748705;80;21066;-64
2021/11/18 00:11:27;;;;;;;15.32;11.63;;;;;;;10.79;45.02;100542.73;1748245;81;21126;-63
2021/11/18 00:13:55;;;;;;;15.00;11.25;;;;;;;10.78;45.00;100547.23;1732083;81;20998;-62
2021/11/18 00:16:22;;;;;;;13.45;11.30;;;;;;;10.78;45.02;100545.90;1752141;80;21038;-62
2021/11/18 00:18:48;;;;;;;15.43;11.25;;;;;;;10.78;44.99;100543.74;1754452;80;21053;-61
2021/11/18 00:21:21;;;;;;;14.18;11.12;;;;;;;10.78;44.99;100549.06;1756052;81;21054;-61
2021/11/18 00:23:51;;;;;;;13.30;11.08;;;;;;;10.77;45.00;100542.05;1755787;81;26601;-61
2021/11/18 00:26:18;;;;;;;14.00;11.25;;;;;;;10.76;44.99;100548.38;1756767;81;21534;-62
2021/11/18 00:28:44;;;;;;;14.80;11.25;;;;;;;10.74;45.00;100548.52;1748685;80;21025;-62
2021/11/18 00:31:16;;;;;;;16.07;12.18;;;;;;;10.74;44.96;100545.00;1745621;80;21027;-61
2021/11/18 00:33:43;;;;;;;14.90;11.60;;;;;;;10.73;44.96;100540.19;1750811;81;21056;-62
2021/11/18 00:36:09;;;;;;;14.70;11.15;;;;;;;10.73;44.96;100546.83;1745713;81;21167;-63
2021/11/18 00:38:38;;;;;;;13.35;10.63;;;;;;;10.72;44.96;100545.64;1749706;80;21035;-64
2021/11/18 00:41:05;;;;;;;13.08;10.60;;;;;;;10.71;44.96;100538.17;1755938;80;21162;-62
2021/11/18 00:43:31;;;;;;;16.37;11.63;;;;;;;10.70;44.97;100536.98;1756634;81;21557;-61
2021/11/18 00:45:58;;;;;;;13.95;11.35;;;;;;;10.69;44.95;100541.47;1740851;81;21612;-61
2021/11/18 00:48:28;;;;;;;13.93;10.43;;;;;;;10.69;44.95;100540.14;1745752;81;21196;-61
2021/11/18 00:51:01;;;;;;;14.63;11.53;;;;;;;10.68;44.95;100537.16;1740628;81;21026;-61
2021/11/18 00:53:27;;;;;;;15.40;11.57;;;;;;;10.69;44.94;100534.00;1753258;81;21565;-61
2021/11/18 00:55:56;;;;;;;15.38;11.20;;;;;;;10.67;44.95;100534.64;1753297;81;21124;-61
2021/11/18 00:58:23;;;;;;;15.43;11.05;;;;;;;10.65;44.94;100532.13;1742046;80;21108;-61
2021/11/18 01:00:51;;;;;;;14.75;12.10;;;;;;;10.65;44.93;100536.12;1747744;81;21139;-61
2021/11/18 01:03:20;;;;;;;14.63;10.90;;;;;;;10.65;44.94;100529.97;1751198;81;21022;-61
2021/11/18 01:05:48;;;;;;;16.37;11.03;;;;;;;10.62;44.91;100523.98;1735834;81;21123;-61
2021/11/18 01:08:15;;;;;;;15.25;11.60;;;;;;;10.62;44.91;100526.63;1753103;81;21085;-61
2021/11/18 01:10:58;;;;;;;15.00;11.93;;;;;;;10.61;44.93;100517.48;1744253;81;21065;-61
2021/11/18 01:13:26;;;;;;;15.95;11.53;;;;;;;10.61;44.91;100516.98;1750624;81;21180;-61
2021/11/18 01:15:53;;;;;;;15.95;11.50;;;;;;;10.60;44.92;100517.12;1748708;80;21532;-61
2021/11/18 01:18:21;;;;;;;15.55;11.68;;;;;;;10.58;44.93;100513.77;1739651;81;21026;-63
2021/11/18 01:20:50;;;;;;;13.28;10.82;;;;;;;10.59;44.92;100519.45;1740193;80;21518;-62
2021/11/18 01:23:21;;;;;;;16.60;12.05;;;;;;;10.56;44.94;100513.92;1743490;80;21617;-62
2021/11/18 01:25:48;;;;;;;16.62;12.25;;;;;;;10.57;44.92;100514.78;1734033;81;22147;-65
2021/11/18 01:28:15;;;;;;;16.32;11.50;;;;;;;10.56;44.92;100509.11;1742440;81;21048;-65
2021/11/18 01:30:45;;;;;;;14.38;10.82;;;;;;;10.54;44.92;100511.91;1749761;81;21086;-66
2021/11/18 01:33:14;;;;;;;13.58;11.00;;;;;;;10.54;44.92;100505.27;1734243;80;21058;-65
2021/11/18 01:35:43;;;;;;;18.80;11.28;;;;;;;10.54;44.92;100513.23;1749747;81;21035;-66
2021/11/18 01:38:09;;;;;;;14.85;10.98;;;;;;;10.53;44.93;100510.75;1741764;81;21096;-66
2021/11/18 01:40:39;;;;;;;14.53;11.15;;;;;;;10.52;44.92;100510.39;1747056;80;21058;-65
2021/11/18 01:43:11;;;;;;;16.55;11.43;;;;;;;10.52;44.92;100499.77;1740957;81;21050;-64
2021/11/18 01:45:38;;;;;;;15.88;11.25;;;;;;;10.52;44.92;100501.92;1747101;81;21061;-65
2021/11/18 01:48:05;;;;;;;13.43;11.22;;;;;;;10.51;44.92;100500.77;1755410;81;21050;-64
2021/11/18 01:50:34;;;;;;;13.70;10.78;;;;;;;10.51;44.92;100503.42;1748422;81;21486;-65
2021/11/18 01:53:05;;;;;;;14.65;10.75;;;;;;;10.51;44.91;100503.42;1746918;80;21015;-65
2021/11/18 01:55:34;;;;;;;16.23;12.25;;;;;;;10.50;44.89;100498.58;1709584;81;21038;-66
2021/11/18 01:58:02;;;;;;;16.93;11.33;;;;;;;10.50;44.91;100499.08;1732542;81;21050;-65
2021/11/18 02:00:52;;;;;;;15.10;10.63;;;;;;;10.48;44.89;100505.87;1692342;82;21058;-65
2021/11/18 02:03:19;;;;;;;15.65;12.03;;;;;;;10.48;44.88;100489.09;1728110;81;23285;-65
2021/11/18 02:06:21;;;;;;;16.57;10.93;;;;;;;10.46;44.90;100491.07;1727997;82;21098;-65
2021/11/18 02:08:49;;;;;;;12.93;10.43;;;;;;;10.45;44.90;100482.74;1722686;81;21061;-65
2021/11/18 02:11:34;;;;;;;14.78;10.68;;;;;;;10.43;44.91;100478.93;1728444;82;21054;-65
2021/11/18 02:14:01;;;;;;;13.95;10.75;;;;;;;10.41;44.93;100475.56;1711596;82;21021;-66
2021/11/18 02:16:30;;;;;;;12.82;10.20;;;;;;;10.40;44.93;100481.37;1725056;82;21185;-65
2021/11/18 02:18:58;;;;;;;13.35;10.08;;;;;;;10.40;44.93;100477.89;1734366;81;21511;-66
2021/11/18 02:21:24;;;;;;;15.50;11.22;;;;;;;10.39;44.94;100466.91;1725951;81;21078;-66
2021/11/18 02:23:58;;;;;;;13.90;10.78;;;;;;;10.38;44.93;100471.39;1736668;82;21054;-65
2021/11/18 02:26:26;;;;;;;16.30;11.30;;;;;;;10.38;44.95;100470.06;1651798;84;21108;-66
2021/11/18 02:28:56;;;;;;;14.87;10.82;;;;;;;10.38;44.94;100471.89;1684279;84;22979;-65
2021/11/18 02:31:38;;;;;;;17.30;11.60;;;;;;;10.38;44.94;100483.84;1736291;82;21003;-66
2021/11/18 02:34:17;;;;;;;15.83;10.28;;;;;;;10.37;44.92;100476.84;1739268;82;21518;-65
2021/11/18 02:36:43;;;;;;;14.90;11.18;;;;;;;10.36;44.92;100479.17;1738478;80;21054;-65
2021/11/18 02:39:10;;;;;;;14.43;11.20;;;;;;;10.34;44.94;100471.34;1737941;81;21276;-65
2021/11/18 02:41:37;;;;;;;14.25;10.95;;;;;;;10.34;44.93;100465.21;1740988;81;21548;-67
2021/11/18 02:44:05;;;;;;;14.43;10.98;;;;;;;10.33;44.96;100460.37;1734325;82;21026;-66
2021/11/18 02:46:35;;;;;;;14.28;10.45;;;;;;;10.33;44.95;100464.85;1720928;82;21010;-65
2021/11/18 02:49:03;;;;;;;12.98;10.30;;;;;;;10.32;44.96;100461.87;1731386;81;21065;-65
2021/11/18 02:51:31;;;;;;;13.00;11.03;;;;;;;10.31;44.96;100459.69;1729203;82;21094;-65
2021/11/18 02:54:00;;;;;;;14.20;11.43;;;;;;;10.31;44.94;100458.86;1724101;82;21152;-66
2021/11/18 02:56:29;;;;;;;14.70;11.15;;;;;;;10.31;44.94;100453.55;1706467;82;21034;-65
2021/11/18 02:58:55;;;;;;;13.40;11.03;;;;;;;10.31;44.92;100449.06;1730179;82;21523;-66
2021/11/18 03:01:30;;;;;;;12.53;9.33;;;;;;;10.31;44.91;100442.92;1725864;81;21045;-66
2021/11/18 03:03:59;;;;;;;14.38;10.35;;;;;;;10.30;44.92;100444.75;1723706;81;21050;-66
2021/11/18 03:06:26;;;;;;;14.60;11.08;;;;;;;10.29;44.91;100441.70;1718797;82;21791;-66
2021/11/18 03:08:53;;;;;;;14.73;10.65;;;;;;;10.29;44.91;100451.50;1733034;82;21019;-65
2021/11/18 03:11:21;;;;;;;13.68;10.48;;;;;;;10.28;44.89;100452.50;1740790;82;20995;-65
2021/11/18 03:13:48;;;;;;;15.40;10.43;;;;;;;10.27;44.89;100460.11;1741319;81;21003;-65
2021/11/18 03:16:14;;;;;;;13.58;10.40;;;;;;;10.27;44.89;100446.33;1731187;81;21051;-65
2021/11/18 03:18:41;;;;;;;14.25;11.20;;;;;;;10.26;44.89;100446.00;1722273;82;21153;-64
2021/11/18 03:21:13;;;;;;;14.15;11.80;;;;;;;10.25;44.89;100439.01;1737815;82;21093;-65
2021/11/18 03:23:40;;;;;;;15.00;10.05;;;;;;;10.24;44.87;100436.85;1718214;81;21019;-65
2021/11/18 03:26:09;;;;;;;13.08;10.80;;;;;;;10.23;44.88;100449.77;1733858;82;21510;-65
2021/11/18 03:28:36;;;;;;;14.90;11.48;;;;;;;10.23;44.88;100451.59;1713013;82;21010;-66
2021/11/18 03:31:05;;;;;;;15.32;11.30;;;;;;;10.23;44.87;100447.62;1733033;82;21133;-65
2021/11/18 03:33:45;;;;;;;13.00;10.30;;;;;;;10.22;44.87;100446.79;1745803;81;21018;-66
2021/11/18 03:36:13;;;;;;;13.75;10.63;;;;;;;10.22;44.87;100437.50;1731488;81;21069;-66
2021/11/18 03:38:40;;;;;;;13.35;10.20;;;;;;;10.21;44.85;100438.97;1749554;81;21042;-66
2021/11/18 03:41:09;;;;;;;14.13;9.90;;;;;;;10.20;44.87;100443.95;1739162;81;21552;-65
2021/11/18 03:43:45;;;;;;;11.55;9.60;;;;;;;10.19;44.87;100443.59;1685562;82;21213;-65
2021/11/18 03:46:13;;;;;;;14.15;10.95;;;;;;;10.19;44.87;100447.58;1694186;82;21068;-66
2021/11/18 03:48:39;;;;;;;12.55;10.10;;;;;;;10.18;44.86;100447.25;1733770;82;21101;-66
2021/11/18 03:51:08;;;;;;;13.22;10.65;;;;;;;10.16;44.88;100438.56;1740767;82;21498;-65
2021/11/18 03:53:35;;;;;;;12.73;10.40;;;;;;;10.17;44.88;100440.25;1731571;80;21530;-67
2021/11/18 03:56:06;;;;;;;14.63;10.50;;;;;;;10.16;44.88;100439.89;1741227;81;21547;-66
2021/11/18 03:58:34;;;;;;;12.88;10.85;;;;;;;10.15;44.87;100435.08;1738051;81;21056;-66
2021/11/18 04:01:03;;;;;;;15.88;10.10;;;;;;;10.15;44.87;100436.91;1756035;81;21030;-66
2021/11/18 04:03:31;;;;;;;14.33;10.78;;;;;;;10.13;44.90;100439.70;1749060;81;21050;-61
2021/11/18 04:05:57;;;;;;;12.35;10.65;;;;;;;10.13;44.89;100438.88;1749754;81;20995;-61
2021/11/18 04:08:24;;;;;;;14.23;10.70;;;;;;;10.12;44.89;100433.20;1756220;81;21142;-61
2021/11/18 04:10:51;;;;;;;14.03;10.68;;;;;;;10.12;44.88;100437.19;1736801;81;21041;-60
2021/11/18 04:13:18;;;;;;;12.80;10.32;;;;;;;10.12;44.88;100435.87;1744056;81;21059;-60
2021/11/18 04:15:49;;;;;;;14.50;11.03;;;;;;;10.09;44.89;100428.22;1745338;81;21073;-61
2021/11/18 04:18:18;;;;;;;14.23;10.43;;;;;;;10.11;44.89;100427.58;1754564;80;20995;-62
2021/11/18 04:20:45;;;;;;;14.00;10.70;;;;;;;10.10;44.86;100423.23;1751341;81;21133;-60
2021/11/18 04:23:12;;;;;;;11.40;10.08;;;;;;;10.10;44.88;100420.58;1748925;81;21050;-60
2021/11/18 04:25:39;;;;;;;13.75;10.98;;;;;;;10.09;44.86;100420.25;1752103;81;21519;-61
2021/11/18 04:28:05;;;;;;;13.72;10.23;;;;;;;10.09;44.89;100414.44;1754220;81;21478;-61
2021/11/18 04:30:43;;;;;;;14.65;10.68;;;;;;;10.09;44.86;100412.28;1753375;81;21137;-62
2021/11/18 04:33:17;;;;;;;13.08;9.98;;;;;;;10.08;44.89;100410.60;1755032;81;21162;-60
2021/11/18 04:35:43;;;;;;;12.78;10.63;;;;;;;10.06;44.87;100406.77;1746216;81;22138;-60
2021/11/18 04:38:10;;;;;;;12.70;9.93;;;;;;;10.05;44.89;100401.12;1759770;80;21512;-61
2021/11/18 04:40:36;;;;;;;12.30;10.05;;;;;;;10.06;44.88;100404.61;1755365;80;21401;-61
2021/11/18 04:43:05;;;;;;;14.25;11.00;;;;;;;10.04;44.83;100391.47;1741935;81;21582;-62
2021/11/18 04:45:32;;;;;;;12.43;9.98;;;;;;;10.04;44.86;100394.13;1755279;81;21091;-62
2021/11/18 04:47:58;;;;;;;13.78;10.43;;;;;;;10.03;44.86;100391.97;1753518;81;21033;-62
2021/11/18 04:50:25;;;;;;;12.82;10.28;;;;;;;10.03;44.87;100389.32;1749290;80;21057;-61
2021/11/18 04:52:52;;;;;;;13.35;10.70;;;;;;;10.02;44.87;100390.32;1742445;81;21044;-61
2021/11/18 04:55:22;;;;;;;13.18;10.15;;;;;;;10.03;44.86;100395.13;1749458;81;21066;-61
2021/11/18 04:57:49;;;;;;;12.78;10.40;;;;;;;10.00;44.87;100380.31;1709059;81;21774;-60
2021/11/18 05:00:25;;;;;;;11.05;9.48;;;;;;;10.01;44.87;100387.31;1742862;81;21626;-61
2021/11/18 05:02:51;;;;;;;15.85;11.40;;;;;;;10.00;44.85;100378.98;1737922;81;21504;-60
2021/11/18 05:05:19;;;;;;;14.98;10.60;;;;;;;10.00;44.84;100392.77;1748357;81;21089;-61
2021/11/18 05:07:45;;;;;;;13.78;11.05;;;;;;;9.99;44.84;100389.28;1733524;81;21077;-60
2021/11/18 05:10:13;;;;;;;14.38;10.68;;;;;;;9.98;44.84;100392.91;1730027;81;21179;-61
2021/11/18 05:12:39;;;;;;;12.65;10.78;;;;;;;9.98;44.85;100390.25;1735589;81;21020;-61
2021/11/18 05:15:09;;;;;;;14.43;10.38;;;;;;;9.97;44.85;100385.94;1749870;81;21040;-61
2021/11/18 05:17:37;;;;;;;13.32;10.48;;;;;;;9.97;44.86;100386.44;1751495;81;21034;-61
2021/11/18 05:20:06;;;;;;;15.00;10.68;;;;;;;9.95;44.84;100389.23;1747328;81;21493;-60
2021/11/18 05:22:32;;;;;;;13.20;10.08;;;;;;;9.94;44.85;100390.20;1750198;81;21095;-60
2021/11/18 05:24:59;;;;;;;13.10;10.00;;;;;;;9.94;44.87;100384.07;1751169;80;21057;-61
2021/11/18 05:27:26;;;;;;;13.13;10.30;;;;;;;9.93;44.85;100389.87;1746024;80;21004;-61
2021/11/18 05:29:52;;;;;;;15.05;10.85;;;;;;;9.93;44.87;100391.20;1746860;81;21069;-62
2021/11/18 05:32:19;;;;;;;12.03;10.13;;;;;;;9.93;44.87;100391.67;1752676;81;21076;-61
2021/11/18 05:34:48;;;;;;;13.38;10.30;;;;;;;9.93;44.87;100390.34;1746814;81;21312;-61
2021/11/18 05:37:14;;;;;;;15.68;10.63;;;;;;;9.91;44.87;100393.17;1757124;80;21036;-62
2021/11/18 05:39:41;;;;;;;12.90;10.53;;;;;;;9.92;44.88;100400.13;1751729;81;21022;-61
2021/11/18 05:42:07;;;;;;;15.18;11.43;;;;;;;9.92;44.87;100405.45;1738907;81;21085;-62
2021/11/18 05:44:34;;;;;;;12.93;10.00;;;;;;;9.91;44.86;100402.46;1755420;80;21727;-63
2021/11/18 05:47:00;;;;;;;15.72;10.93;;;;;;;9.90;44.86;100400.77;1750940;81;22218;-61
2021/11/18 05:49:27;;;;;;;14.05;11.05;;;;;;;9.90;44.87;100399.45;1752107;81;21093;-61
2021/11/18 05:51:53;;;;;;;14.20;11.22;;;;;;;9.91;44.84;100394.97;1752376;81;21526;-62
2021/11/18 05:54:21;;;;;;;15.43;11.45;;;;;;;9.81;44.85;100388.38;1747614;80;21718;-61
2021/11/18 05:56:48;;;;;;;12.75;10.55;;;;;;;9.91;44.83;100393.17;1741779;80;21023;-61
2021/11/18 05:59:14;;;;;;;13.03;11.22;;;;;;;9.91;44.83;100397.16;1728813;82;21361;-62
2021/11/18 06:01:41;;;;;;;13.80;10.88;;;;;;;9.91;44.83;100397.63;1728638;82;21054;-63
2021/11/18 06:04:09;;;;;;;14.75;11.53;;;;;;;9.91;44.83;100401.60;1742535;82;21016;-62
2021/11/18 06:06:44;;;;;;;13.28;10.55;;;;;;;9.91;44.82;100403.79;1736188;81;21050;-61
2021/11/18 06:09:12;;;;;;;15.53;11.95;;;;;;;9.91;44.82;100395.83;1740310;82;21023;-61
2021/11/18 06:11:40;;;;;;;13.60;11.30;;;;;;;9.91;44.81;100398.95;1728424;82;21129;-61
2021/11/18 06:14:10;;;;;;;13.53;10.43;;;;;;;9.91;44.83;100394.97;1732717;81;21066;-62
2021/11/18 06:16:38;;;;;;;13.65;10.75;;;;;;;9.91;44.81;100397.16;1732937;81;21604;-63
2021/11/18 06:19:05;;;;;;;14.38;10.98;;;;;;;9.93;44.81;100391.67;1742347;82;21014;-62
2021/11/18 06:21:42;;;;;;;16.52;12.10;;;;;;;9.93;44.81;100389.87;1738971;81;21090;-62
2021/11/18 06:24:09;;;;;;;15.15;11.65;;;;;;;9.93;44.80;100397.84;1732362;82;23307;-62
2021/11/18 06:26:37;;;;;;;13.75;11.35;;;;;;;9.95;44.78;100399.03;1727223;81;21581;-62
2021/11/18 06:29:04;;;;;;;15.15;11.25;;;;;;;9.95;44.79;100398.53;1727476;81;21000;-63
2021/11/18 06:31:31;;;;;;;15.35;11.35;;;;;;;9.96;44.77;100396.20;1725306;82;21502;-63
2021/11/18 06:33:58;;;;;;;13.98;11.43;;;;;;;9.97;44.77;100389.92;1730530;82;21104;-62
2021/11/18 06:36:26;;;;;;;16.10;12.25;;;;;;;9.98;44.75;100386.27;1738171;81;21144;-61
2021/11/18 06:38:52;;;;;;;17.27;11.83;;;;;;;9.99;44.71;100386.63;1744791;80;21018;-62
2021/11/18 06:41:21;;;;;;;13.80;11.30;;;;;;;10.00;44.71;100381.64;1729001;81;21034;-62
2021/11/18 06:43:48;;;;;;;13.58;11.00;;;;;;;10.02;44.69;100385.48;1728322;82;21062;-62
2021/11/18 06:46:16;;;;;;;14.95;11.50;;;;;;;10.03;44.68;100380.03;1740815;82;21089;-63
2021/11/18 06:48:43;;;;;;;14.07;11.57;;;;;;;10.04;44.66;100377.73;1729134;81;21103;-63
2021/11/18 06:51:16;;;;;;;14.33;11.22;;;;;;;10.07;44.66;100377.09;1742834;81;21034;-62
2021/11/18 06:53:43;;;;;;;14.38;12.18;;;;;;;10.08;44.63;100369.45;1731174;82;21006;-62
2021/11/18 06:56:12;;;;;;;11.97;10.58;;;;;;;10.10;44.62;100376.77;1757624;80;21061;-62
2021/11/18 06:58:39;;;;;;;14.80;11.38;;;;;;;10.11;44.60;100388.58;1759313;80;21064;-62
2021/11/18 07:01:05;;;;;;;17.02;11.83;;;;;;;10.13;44.58;100393.25;1757557;80;21127;-63
2021/11/18 07:03:32;;;;;;;15.70;11.25;;;;;;;10.16;44.57;100384.13;1755495;81;21070;-61
2021/11/18 07:05:58;;;;;;;14.05;11.05;;;;;;;10.17;44.56;100382.66;1746567;81;21319;-62
2021/11/18 07:08:25;;;;;;;14.53;11.97;;;;;;;10.18;44.51;100376.88;1734568;81;21650;-62
2021/11/18 07:10:52;;;;;;;16.27;11.88;;;;;;;10.23;44.50;100378.58;1741777;81;21273;-62
2021/11/18 07:13:23;;;;;;;14.05;11.20;;;;;;;10.25;44.45;100375.28;1741249;81;22159;-63
2021/11/18 07:15:51;;;;;;;15.32;11.60;;;;;;;10.28;44.45;100376.81;1750976;81;21600;-64
2021/11/18 07:18:19;;;;;;;15.40;11.93;;;;;;;10.29;44.41;100381.95;1739829;81;21073;-64
2021/11/18 07:20:47;;;;;;;15.78;12.33;;;;;;;10.31;44.42;100383.16;1744682;81;21128;-63
2021/11/18 07:23:15;;;;;;;13.85;11.75;;;;;;;10.33;44.39;100383.85;1744041;81;21026;-62
2021/11/18 07:25:46;;;;;;;13.80;11.50;;;;;;;10.35;44.37;100381.41;1749930;81;21162;-64
2021/11/18 07:28:12;;;;;;;14.95;12.10;;;;;;;10.37;44.34;100376.78;1748887;81;21105;-63
2021/11/18 07:30:40;;;;;;;14.07;11.25;;;;;;;10.38;44.35;100374.45;1744366;81;21011;-62
2021/11/18 07:33:06;;;;;;;14.33;11.95;;;;;;;10.40;44.32;100370.31;1745450;81;21077;-63
2021/11/18 07:35:33;;;;;;;14.23;11.78;;;;;;;10.42;44.31;100372.33;1736162;81;21602;-63
2021/11/18 07:38:00;;;;;;;14.65;12.33;;;;;;;10.44;44.50;100365.04;1745824;81;21879;-64
2021/11/18 07:40:28;;;;;;;14.43;11.28;;;;;;;10.46;44.61;100364.89;1747969;81;21105;-63
2021/11/18 07:42:56;;;;;;;17.37;12.93;;;;;;;10.47;44.60;100363.42;1733434;81;21612;-63
2021/11/18 07:45:28;;;;;;;15.38;12.15;;;;;;;10.49;44.58;100366.76;1741206;81;21029;-63
2021/11/18 07:47:59;;;;;;;15.63;12.47;;;;;;;10.53;44.54;100364.63;1738737;81;21073;-63
2021/11/18 07:50:27;;;;;;;14.05;11.55;;;;;;;10.54;44.53;100355.16;1748545;81;21498;-65
2021/11/18 07:52:54;;;;;;;24.07;13.50;;;;;;;10.57;44.50;100356.70;1738518;81;21057;-64
2021/11/18 07:55:22;;;;;;;24.32;13.50;;;;;;;10.70;60.20;100354.48;1746899;81;21030;-64
2021/11/18 07:57:49;;;;;;;14.58;12.80;;;;;;;11.16;65.92;100349.83;1741642;80;21128;-67
2021/11/18 08:00:19;;;;;;;15.83;12.28;;;;;;;11.69;64.65;100348.42;1746950;81;21065;-67
2021/11/18 08:02:47;;;;;;;18.80;12.78;;;;;;;11.93;62.40;100341.85;1739828;81;21855;-65
2021/11/18 08:05:16;;;;;;;22.90;12.13;;;;;;;12.06;60.53;100344.56;1744730;80;21042;-63
2021/11/18 08:07:43;;;;;;;18.55;13.60;;;;;;;12.12;59.11;100342.06;1736609;81;21108;-64
2021/11/18 08:10:11;;;;;;;24.30;17.75;;;;;;;12.15;58.17;100337.76;1745145;81;21101;-63
2021/11/18 08:12:40;;;;;;;26.60;20.15;;;;;;;12.22;61.33;100334.44;1744038;81;21485;-63
2021/11/18 08:15:12;;;;;;;19.92;15.35;;;;;;;12.31;55.59;100334.28;1736284;81;21118;-61
2021/11/18 08:17:38;;;;;;;22.82;15.72;;;;;;;12.38;61.02;100283.34;1748222;81;21038;-58
2021/11/18 08:20:08;;;;;;;20.50;14.53;;;;;;;12.73;62.45;100289.82;1734321;81;21077;-64
2021/11/18 08:22:34;;;;;;;24.98;16.35;;;;;;;13.16;62.31;100331.22;1749268;81;21026;-63
2021/11/18 08:25:04;;;;;;;25.40;16.27;;;;;;;13.55;60.51;100342.47;1748282;81;21052;-63
2021/11/18 08:27:32;;;;;;;25.50;15.28;;;;;;;13.75;58.58;100343.38;1753144;81;21135;-65
2021/11/18 08:30:00;;;;;;;20.85;15.55;;;;;;;13.84;57.30;100359.70;1744876;81;21108;-64
2021/11/18 08:32:26;;;;;;;21.20;15.43;;;;;;;13.87;56.21;100350.50;1737598;81;21039;-66
2021/11/18 08:34:54;;;;;;;19.42;14.93;;;;;;;13.86;55.44;100348.34;1739394;80;21034;-63
2021/11/18 08:37:21;;;;;;;18.82;15.00;;;;;;;13.86;54.80;100349.67;1744618;80;21073;-64
2021/11/18 08:39:48;;;;;;;27.93;15.43;;;;;;;13.84;54.25;100336.18;1740288;81;22338;-65
2021/11/18 08:42:19;;;;;;;19.05;14.98;;;;;;;13.84;53.83;100346.86;1734823;80;21085;-64
2021/11/18 08:44:46;;;;;;;21.42;15.08;;;;;;;13.83;53.41;100354.05;1735719;81;21506;-64
2021/11/18 08:47:14;;;;;;;21.10;15.32;;;;;;;13.83;53.03;100356.72;1736680;81;21116;-65
2021/11/18 08:49:40;;;;;;;20.82;14.38;;;;;;;13.84;52.74;100349.53;1736534;81;21087;-64
2021/11/18 08:52:10;;;;;;;20.00;14.63;;;;;;;13.84;52.42;100349.53;1735113;81;21138;-65
2021/11/18 08:54:41;;;;;;;20.72;15.23;;;;;;;13.85;52.10;100346.69;1728656;81;21541;-64
2021/11/18 08:57:08;;;;;;;20.05;15.10;;;;;;;13.89;51.79;100352.52;1720715;81;21498;-61
2021/11/18 08:59:37;;;;;;;21.37;14.60;;;;;;;13.90;51.52;100337.63;1733724;81;21734;-61
2021/11/18 09:02:10;;;;;;;18.37;15.50;;;;;;;13.93;51.17;100339.97;1728082;81;21046;-61
2021/11/18 09:04:37;;;;;;;22.13;15.15;;;;;;;13.97;50.87;100325.77;1734681;81;21763;-62
2021/11/18 09:07:05;;;;;;;19.62;14.83;;;;;;;14.00;50.51;100332.06;1732303;81;21027;-61
2021/11/18 09:09:32;;;;;;;19.10;15.10;;;;;;;14.05;50.24;100330.22;1732205;81;21373;-61
2021/11/18 09:11:59;;;;;;;20.25;15.55;;;;;;;14.09;49.94;100332.35;1736654;81;21547;-62
2021/11/18 09:14:28;;;;;;;19.67;15.10;;;;;;;14.14;49.71;100325.16;1721269;81;21090;-62
2021/11/18 09:16:55;;;;;;;19.73;14.55;;;;;;;14.19;49.45;100316.09;1724918;82;21171;-63
2021/11/18 09:19:28;;;;;;;17.30;14.65;;;;;;;14.25;49.20;100322.56;1734365;80;21137;-60
2021/11/18 09:21:56;;;;;;;21.70;15.80;;;;;;;14.30;48.97;100314.34;1731896;80;21030;-63
2021/11/18 09:24:28;;;;;;;20.62;15.23;;;;;;;14.34;48.72;100313.48;1731933;80;21116;-63
2021/11/18 09:27:02;;;;;;;17.62;13.55;;;;;;;14.40;48.51;100311.95;1731822;80;21025;-61
2021/11/18 09:29:29;;;;;;;18.67;14.53;;;;;;;14.45;48.28;100318.93;1728963;82;21111;-63
2021/11/18 09:32:14;;;;;;;16.55;13.58;;;;;;;14.52;48.10;100319.86;1728409;82;21509;-62
2021/11/18 09:34:43;;;;;;;19.20;14.87;;;;;;;14.58;47.91;100307.12;1730251;81;21117;-60
2021/11/18 09:37:10;;;;;;;18.12;14.05;;;;;;;14.64;47.72;100297.07;1737760;81;21152;-61
2021/11/18 09:39:38;;;;;;;18.65;13.58;;;;;;;14.71;47.53;100295.31;1736475;80;21117;-61
2021/11/18 09:42:11;;;;;;;17.57;13.72;;;;;;;14.79;47.36;100285.56;1736983;81;21106;-60
2021/11/18 09:44:51;;;;;;;17.23;13.10;;;;;;;14.85;47.17;100286.98;1730142;81;21533;-60
2021/11/18 09:48:06;;;;;;;17.67;13.48;;;;;;;14.95;46.99;100281.39;1736241;81;20975;-62
2021/11/18 09:50:49;;;;;;;18.12;13.48;;;;;;;15.04;46.80;100280.78;1734730;81;21182;-62
2021/11/18 09:53:56;;;;;;;16.23;13.53;;;;;;;15.11;46.62;100273.17;1714848;82;21035;-61
2021/11/18 09:56:39;;;;;;;15.83;13.05;;;;;;;15.18;46.44;100277.78;1742733;81;21208;-61
2021/11/18 09:59:33;;;;;;;15.83;12.45;;;;;;;15.22;46.25;100268.36;1751790;80;21081;-62
2021/11/18 10:02:24;;;;;;;16.65;14.00;;;;;;;15.22;46.07;100274.56;1731247;82;21054;-60
2021/11/18 10:05:07;;;;;;;16.35;13.85;;;;;;;15.23;45.92;100268.70;1728118;82;21014;-61
2021/11/18 10:07:53;;;;;;;17.25;14.20;;;;;;;15.21;45.81;100270.73;1733194;81;21057;-62
2021/11/18 10:10:30;;;;;;;16.90;12.93;;;;;;;15.22;45.73;100257.66;1750661;80;21893;-64
2021/11/18 10:13:22;;;;;;;17.60;13.40;;;;;;;15.22;45.61;100250.97;1736911;80;21089;-63
2021/11/18 10:16:06;;;;;;;15.80;12.78;;;;;;;15.21;45.52;100247.47;1752072;80;21085;-63
2021/11/18 10:18:38;;;;;;;16.90;13.43;;;;;;;15.23;45.43;100247.28;1744627;82;21015;-64
2021/11/18 10:21:18;;;;;;;15.48;13.83;;;;;;;15.23;45.35;100239.26;1715604;82;21124;-64
2021/11/18 10:23:47;;;;;;;15.70;11.90;;;;;;;15.22;45.23;100222.86;1692891;84;21119;-63
2021/11/18 10:26:22;;;;;;;16.27;12.90;;;;;;;15.21;45.17;100235.94;1701969;83;22005;-64
2021/11/18 10:29:03;;;;;;;16.40;13.55;;;;;;;15.18;45.18;100225.59;1692316;83;21054;-62
2021/11/18 10:32:02;;;;;;;16.05;12.73;;;;;;;15.14;45.14;100223.80;1709959;83;21733;-63
2021/11/18 10:34:44;;;;;;;16.95;13.35;;;;;;;15.10;45.09;100220.69;1635088;85;21515;-62
2021/11/18 10:37:22;;;;;;;17.95;13.60;;;;;;;15.07;45.10;100219.70;1685318;83;21232;-63
2021/11/18 10:40:12;;;;;;;16.93;12.85;;;;;;;15.04;45.08;100224.59;1670981;84;21077;-65
2021/11/18 10:42:52;;;;;;;14.65;12.25;;;;;;;15.01;45.05;100225.80;1683910;84;21545;-62
2021/11/18 10:45:37;;;;;;;14.25;12.00;;;;;;;14.99;45.04;100219.81;1666927;84;21070;-62
2021/11/18 10:48:24;;;;;;;17.48;12.65;;;;;;;14.97;44.97;100222.33;1684830;84;21086;-63
2021/11/18 10:51:04;;;;;;;15.25;13.20;;;;;;;14.93;44.94;100212.50;1684498;83;23414;-63
2021/11/18 10:53:51;;;;;;;19.95;13.15;;;;;;;14.90;44.91;100212.89;1681207;83;21064;-62
2021/11/18 10:56:23;;;;;;;16.12;12.85;;;;;;;14.89;44.92;100209.87;1674596;84;21042;-63
2021/11/18 10:59:16;;;;;;;16.90;12.73;;;;;;;14.86;44.96;100203.06;1689256;83;22357;-63
2021/11/18 11:01:50;;;;;;;16.82;12.50;;;;;;;14.85;44.91;100205.91;1689805;83;21106;-64
2021/11/18 11:04:38;;;;;;;15.43;13.28;;;;;;;14.81;44.91;100190.73;1679007;84;21134;-64
2021/11/18 11:07:05;;;;;;;16.00;12.82;;;;;;;14.79;44.90;100186.59;1686759;83;22512;-64
2021/11/18 11:09:37;;;;;;;16.55;13.90;;;;;;;14.77;44.87;100184.62;1685724;83;21115;-63
2021/11/18 11:12:24;;;;;;;16.60;12.90;;;;;;;14.74;44.79;100187.16;1679065;83;21072;-64
2021/11/18 11:15:08;;;;;;;15.13;12.88;;;;;;;14.74;44.76;100183.16;1686472;83;21098;-64
2021/11/18 11:18:03;;;;;;;14.20;11.93;;;;;;;14.69;44.73;100179.67;1679142;83;21163;-64
2021/11/18 11:20:48;;;;;;;17.67;12.60;;;;;;;14.67;44.70;100179.03;1680681;83;21071;-63
2021/11/18 11:23:44;;;;;;;15.25;13.05;;;;;;;14.64;44.67;100190.11;1701686;83;21192;-63
2021/11/18 11:26:41;;;;;;;16.27;12.85;;;;;;;14.60;44.70;100179.44;1732037;82;21097;-64